createdAt,value
2019-01-19T00:00:36.675Z,-7.00
2019-01-19T00:03:34.149Z,-7.20
2019-01-19T00:06:24.057Z,-7.20
2019-01-19T00:09:15.655Z,-7.20
2019-01-19T00:12:18.743Z,-7.20
2019-01-19T00:15:16.830Z,-7.30
2019-01-19T00:18:22.410Z,-7.30
2019-01-19T00:21:30.586Z,-7.30
2019-01-19T00:24:50.411Z,-7.30
2019-01-19T00:27:34.543Z,-7.30
2019-01-19T00:30:21.558Z,-7.40
2019-01-19T00:33:32.296Z,-7.50
2019-01-19T00:36:46.539Z,-7.50
2019-01-19T00:39:50.835Z,-7.50
2019-01-19T00:42:31.509Z,-7.50
2019-01-19T00:46:00.541Z,-7.50
2019-01-19T00:49:01.191Z,-7.50
2019-01-19T00:52:06.587Z,-7.50
2019-01-19T00:54:48.422Z,-7.50
2019-01-19T00:57:44.491Z,-7.60
2019-01-19T01:00:20.479Z,-7.60
2019-01-19T01:03:58.315Z,-7.60
2019-01-19T01:06:51.769Z,-7.70
2019-01-19T01:09:58.971Z,-7.80
2019-01-19T01:12:49.585Z,-7.70
2019-01-19T01:15:44.430Z,-7.80
2019-01-19T01:19:01.310Z,-7.80
2019-01-19T01:22:02.204Z,-7.80
2019-01-19T01:24:49.991Z,-7.80
2019-01-19T01:27:48.426Z,-7.90
2019-01-19T01:31:11.400Z,-7.90
2019-01-19T01:34:30.292Z,-7.90
2019-01-19T01:37:20.050Z,-7.90
2019-01-19T01:40:36.165Z,-8.00
2019-01-19T01:43:24.268Z,-8.00
2019-01-19T01:46:28.490Z,-8.00
2019-01-19T01:49:15.804Z,-8.00
2019-01-19T01:52:05.758Z,-8.00
2019-01-19T01:54:53.794Z,-8.10
2019-01-19T01:57:32.197Z,-8.10
2019-01-19T02:00:29.420Z,-8.10
2019-01-19T02:03:20.331Z,-8.10
2019-01-19T02:06:03.791Z,-8.10
2019-01-19T02:09:11.107Z,-8.10
2019-01-19T02:12:06.493Z,-8.20
2019-01-19T02:15:10.699Z,-8.30
2019-01-19T02:18:16.345Z,-8.30
2019-01-19T02:21:36.273Z,-8.30
2019-01-19T02:24:36.115Z,-8.30
2019-01-19T02:27:56.586Z,-8.30
2019-01-19T02:31:06.514Z,-8.30
2019-01-19T02:34:02.547Z,-8.30
2019-01-19T02:36:46.298Z,-8.40
2019-01-19T02:40:13.376Z,-8.40
2019-01-19T02:42:58.407Z,-8.50
2019-01-19T02:45:53.161Z,-8.50
2019-01-19T02:48:45.175Z,-8.50
2019-01-19T02:51:42.243Z,-8.50
2019-01-19T02:54:40.280Z,-8.60
2019-01-19T02:57:51.668Z,-8.60
2019-01-19T03:01:06.530Z,-8.60
2019-01-19T03:04:13.233Z,-8.60
2019-01-19T03:07:07.384Z,-8.70
2019-01-19T03:10:12.392Z,-8.70
2019-01-19T03:13:29.045Z,-8.60
2019-01-19T03:16:47.370Z,-8.70
2019-01-19T03:19:59.721Z,-8.70
2019-01-19T03:22:59.832Z,-8.70
2019-01-19T03:25:42.644Z,-8.60
2019-01-19T03:28:35.163Z,-8.70
2019-01-19T03:31:46.385Z,-8.70
2019-01-19T03:34:38.702Z,-8.70
2019-01-19T03:37:34.544Z,-8.70
2019-01-19T03:40:42.865Z,-8.80
2019-01-19T03:43:56.786Z,-8.80
2019-01-19T03:47:10.371Z,-8.70
2019-01-19T03:50:18.121Z,-8.70
2019-01-19T03:53:29.846Z,-8.70
2019-01-19T03:56:25.233Z,-8.70
2019-01-19T03:59:31.276Z,-8.70
2019-01-19T04:02:56.875Z,-8.70
2019-01-19T04:06:12.608Z,-8.70
2019-01-19T04:09:19.314Z,-8.60
2019-01-19T04:12:36.196Z,-8.60
2019-01-19T04:15:32.684Z,-8.40
2019-01-19T04:18:25.831Z,-8.50
2019-01-19T04:21:32.583Z,-8.50
2019-01-19T04:24:15.555Z,-8.40
2019-01-19T04:26:47.245Z,-8.40
2019-01-19T04:29:16.620Z,-8.30
2019-01-19T04:31:46.246Z,-8.30
2019-01-19T04:34:15.950Z,-8.20
2019-01-19T04:36:45.515Z,-8.20
2019-01-19T04:39:14.990Z,-8.20
2019-01-19T04:41:44.409Z,-8.20
2019-01-19T04:44:13.823Z,-8.20
2019-01-19T04:46:43.186Z,-8.20
2019-01-19T04:49:12.901Z,-8.20
2019-01-19T04:51:42.254Z,-8.20
2019-01-19T04:54:12.099Z,-8.20
2019-01-19T04:56:41.567Z,-8.20
2019-01-19T04:59:11.263Z,-8.20
2019-01-19T05:01:40.899Z,-8.10
2019-01-19T05:04:11.008Z,-8.20
2019-01-19T05:06:40.473Z,-8.20
2019-01-19T05:09:13.379Z,-8.30
2019-01-19T05:11:42.786Z,-8.20
2019-01-19T05:14:12.594Z,-8.20
2019-01-19T05:16:42.031Z,-8.30
2019-01-19T05:19:11.537Z,-8.30
2019-01-19T05:21:41.040Z,-8.40
2019-01-19T05:24:10.517Z,-8.50
2019-01-19T05:26:40.015Z,-8.50
2019-01-19T05:29:09.757Z,-8.50
2019-01-19T05:31:39.183Z,-8.50
2019-01-19T05:34:10.467Z,-8.50
2019-01-19T05:36:41.907Z,-8.60
2019-01-19T05:39:12.885Z,-8.70
2019-01-19T05:41:42.707Z,-8.70
2019-01-19T05:44:12.267Z,-8.70
2019-01-19T05:46:41.693Z,-8.70
2019-01-19T05:49:13.194Z,-8.70
2019-01-19T05:51:43.744Z,-8.80
2019-01-19T05:54:13.567Z,-8.90
2019-01-19T05:56:45.705Z,-9.00
2019-01-19T05:59:16.124Z,-8.90
2019-01-19T06:01:46.400Z,-8.90
2019-01-19T06:04:16.530Z,-8.90
2019-01-19T06:06:46.950Z,-8.80
2019-01-19T06:09:17.230Z,-8.80
2019-01-19T06:11:46.787Z,-8.90
2019-01-19T06:14:16.901Z,-9.00
2019-01-19T06:16:46.786Z,-9.00
2019-01-19T06:19:17.520Z,-9.00
2019-01-19T06:21:58.826Z,-9.00
2019-01-19T06:24:28.198Z,-9.00
2019-01-19T06:26:58.315Z,-8.90
2019-01-19T06:29:27.850Z,-8.90
2019-01-19T06:31:57.414Z,-9.00
2019-01-19T06:34:26.806Z,-9.00
2019-01-19T06:36:56.597Z,-9.00
2019-01-19T06:39:26.149Z,-9.00
2019-01-19T06:41:55.653Z,-8.90
2019-01-19T06:44:25.179Z,-8.90
2019-01-19T06:46:54.724Z,-9.00
2019-01-19T06:49:25.667Z,-9.00
2019-01-19T06:51:55.061Z,-9.00
2019-01-19T06:54:25.782Z,-9.00
2019-01-19T06:56:55.248Z,-9.00
2019-01-19T06:59:24.637Z,-9.00
2019-01-19T07:01:54.181Z,-9.00
2019-01-19T07:04:23.905Z,-8.90
2019-01-19T07:06:54.093Z,-9.00
2019-01-19T07:09:24.103Z,-9.00
2019-01-19T07:11:53.613Z,-9.00
2019-01-19T07:14:23.485Z,-9.10
2019-01-19T07:16:53.104Z,-9.10
2019-01-19T07:19:22.885Z,-9.20
2019-01-19T07:21:52.199Z,-9.20
2019-01-19T07:24:21.896Z,-9.20
2019-01-19T07:26:51.501Z,-9.30
2019-01-19T07:29:20.953Z,-9.20
2019-01-19T07:31:50.390Z,-9.20
2019-01-19T07:34:20.032Z,-9.20
2019-01-19T07:36:49.540Z,-9.20
2019-01-19T07:39:19.096Z,-9.20
2019-01-19T07:41:48.611Z,-9.20
2019-01-19T07:44:18.715Z,-9.20
2019-01-19T07:46:56.036Z,-9.20
2019-01-19T07:49:23.210Z,-9.20
2019-01-19T07:51:52.768Z,-9.20
2019-01-19T07:54:22.714Z,-9.20
2019-01-19T07:56:52.491Z,-9.20
2019-01-19T07:59:22.541Z,-9.20
2019-01-19T08:01:53.164Z,-9.20
2019-01-19T08:04:24.498Z,-9.10
2019-01-19T08:06:54.240Z,-9.00
2019-01-19T08:09:24.201Z,-8.90
2019-01-19T08:11:53.833Z,-8.90
2019-01-19T08:14:23.491Z,-8.80
2019-01-19T08:16:52.889Z,-8.80
2019-01-19T08:19:22.500Z,-8.70
2019-01-19T08:21:52.255Z,-8.70
2019-01-19T08:24:21.604Z,-8.60
2019-01-19T08:26:51.324Z,-8.50
2019-01-19T08:29:20.723Z,-8.40
2019-01-19T08:31:50.356Z,-8.30
2019-01-19T08:34:20.040Z,-8.20
2019-01-19T08:36:49.443Z,-8.10
2019-01-19T08:39:18.954Z,-8.00
2019-01-19T08:41:48.526Z,-7.90
2019-01-19T08:44:18.002Z,-7.80
2019-01-19T08:46:48.679Z,-7.70
2019-01-19T08:49:18.112Z,-7.50
2019-01-19T08:51:47.947Z,-6.90
2019-01-19T08:54:17.612Z,-6.40
2019-01-19T08:56:47.935Z,-6.30
2019-01-19T08:59:18.553Z,-6.30
2019-01-19T09:01:48.497Z,-6.50
2019-01-19T09:04:18.752Z,-6.30
2019-01-19T09:06:48.695Z,-6.30
2019-01-19T09:09:18.646Z,-6.40
2019-01-19T09:11:48.444Z,-6.40
2019-01-19T09:14:17.864Z,-6.10
2019-01-19T09:16:47.274Z,-6.20
2019-01-19T09:19:16.761Z,-6.20
2019-01-19T09:21:46.325Z,-6.30
2019-01-19T09:24:24.684Z,-6.30
2019-01-19T09:26:54.431Z,-6.20
2019-01-19T09:29:23.978Z,-6.20
2019-01-19T09:31:54.202Z,-6.20
2019-01-19T09:34:23.839Z,-5.90
2019-01-19T09:36:53.990Z,-5.70
2019-01-19T09:39:24.457Z,-5.60
2019-01-19T09:41:54.178Z,-5.50
2019-01-19T09:44:24.575Z,-5.30
2019-01-19T09:46:54.199Z,-5.20
2019-01-19T09:49:23.734Z,-5.10
2019-01-19T09:51:53.198Z,-5.10
2019-01-19T09:54:22.772Z,-5.00
2019-01-19T09:56:52.341Z,-5.00
2019-01-19T09:59:21.946Z,-4.80
2019-01-19T10:01:51.485Z,-4.50
2019-01-19T10:04:21.036Z,-4.20
2019-01-19T10:06:50.552Z,-3.90
2019-01-19T10:09:20.158Z,-3.60
2019-01-19T10:11:49.627Z,-3.40
2019-01-19T10:14:19.317Z,-3.30
2019-01-19T10:16:48.794Z,-3.00
2019-01-19T10:19:18.333Z,-2.80
2019-01-19T10:21:48.033Z,-2.60
2019-01-19T10:24:17.456Z,-2.50
2019-01-19T10:26:47.276Z,-2.30
2019-01-19T10:29:17.399Z,-2.00
2019-01-19T10:31:47.026Z,-2.00
2019-01-19T10:34:16.637Z,-1.90
2019-01-19T10:36:46.216Z,-1.90
2019-01-19T10:39:15.714Z,-1.90
2019-01-19T10:42:07.704Z,-1.90
2019-01-19T10:44:37.470Z,-1.80
2019-01-19T10:47:07.457Z,-1.90
2019-01-19T10:49:37.015Z,-2.00
2019-01-19T10:52:06.821Z,-2.00
2019-01-19T10:54:36.514Z,-2.00
2019-01-19T10:57:05.988Z,-1.90
2019-01-19T10:59:35.618Z,-1.90
2019-01-19T11:02:05.326Z,-1.80
2019-01-19T11:04:34.828Z,-1.80
2019-01-19T11:07:04.582Z,-1.80
2019-01-19T11:09:34.287Z,-1.90
2019-01-19T11:12:04.034Z,-1.90
2019-01-19T11:14:33.741Z,-1.80
2019-01-19T11:17:03.332Z,-1.90
2019-01-19T11:19:32.914Z,-2.00
2019-01-19T11:22:02.520Z,-2.00
2019-01-19T11:24:32.019Z,-2.10
2019-01-19T11:27:01.647Z,-2.20
2019-01-19T11:29:31.144Z,-2.20
2019-01-19T11:32:00.926Z,-2.20
2019-01-19T11:34:30.326Z,-2.00
2019-01-19T11:36:59.905Z,-2.00
2019-01-19T11:39:29.407Z,-2.00
2019-01-19T11:41:59.128Z,-1.90
2019-01-19T11:44:28.568Z,-2.10
2019-01-19T11:46:58.328Z,-2.10
2019-01-19T11:49:27.987Z,-2.20
2019-01-19T11:51:57.416Z,-2.20
2019-01-19T11:54:27.001Z,-2.20
2019-01-19T11:56:56.747Z,-2.20
2019-01-19T11:59:26.807Z,-2.20
2019-01-19T12:01:56.343Z,-2.30
2019-01-19T12:04:25.811Z,-2.20
2019-01-19T12:06:55.533Z,-2.20
2019-01-19T12:09:25.372Z,-2.20
2019-01-19T12:11:54.877Z,-2.10
2019-01-19T12:14:24.407Z,-2.10
2019-01-19T12:16:57.044Z,-2.00
2019-01-19T12:19:27.033Z,-2.00
2019-01-19T12:21:57.095Z,-1.90
2019-01-19T12:24:26.595Z,-1.90
2019-01-19T12:26:56.330Z,-1.90
2019-01-19T12:29:26.047Z,-1.90
2019-01-19T12:31:55.518Z,-1.90
2019-01-19T12:34:25.105Z,-1.90
2019-01-19T12:36:54.778Z,-1.90
2019-01-19T12:39:24.217Z,-1.80
2019-01-19T12:41:53.921Z,-1.80
2019-01-19T12:44:24.113Z,-1.90
2019-01-19T12:46:54.013Z,-1.90
2019-01-19T12:49:23.435Z,-1.80
2019-01-19T12:51:53.056Z,-1.90
2019-01-19T12:54:22.650Z,-1.90
2019-01-19T12:56:52.880Z,-1.90
2019-01-19T12:59:22.533Z,-1.90
2019-01-19T13:01:52.371Z,-2.00
2019-01-19T13:04:21.937Z,-2.10
2019-01-19T13:07:04.888Z,-2.10
2019-01-19T13:09:44.088Z,-2.10
2019-01-19T13:12:41.143Z,-2.00
2019-01-19T13:15:42.665Z,-2.00
2019-01-19T13:19:02.712Z,-2.00
2019-01-19T13:22:10.124Z,-2.10
2019-01-19T13:24:55.204Z,-2.10
2019-01-19T13:27:53.344Z,-2.10
2019-01-19T13:31:11.202Z,-2.10
2019-01-19T13:34:14.624Z,-2.10
2019-01-19T13:37:24.800Z,-2.00
2019-01-19T13:40:09.878Z,-2.10
2019-01-19T13:43:17.630Z,-2.10
2019-01-19T13:45:56.953Z,-2.00
2019-01-19T13:48:51.943Z,-2.00
2019-01-19T13:51:30.326Z,-2.10
2019-01-19T13:54:36.885Z,-2.10
2019-01-19T13:57:35.058Z,-2.10
2019-01-19T14:00:44.838Z,-2.10
2019-01-19T14:03:59.946Z,-2.10
2019-01-19T14:07:06.219Z,-2.10
2019-01-19T14:10:01.811Z,-2.20
2019-01-19T14:13:36.468Z,-2.20
2019-01-19T14:16:30.594Z,-2.20
2019-01-19T14:19:47.166Z,-2.20
2019-01-19T14:22:58.526Z,-2.20
2019-01-19T14:25:51.925Z,-2.20
2019-01-19T14:29:02.523Z,-2.20
2019-01-19T14:32:08.474Z,-2.20
2019-01-19T14:35:01.398Z,-2.20
2019-01-19T14:38:00.761Z,-2.20
2019-01-19T14:41:11.721Z,-2.30
2019-01-19T14:44:10.028Z,-2.30
2019-01-19T14:47:22.555Z,-2.30
2019-01-19T14:50:43.277Z,-2.40
2019-01-19T14:54:24.456Z,-2.40
2019-01-19T14:57:29.724Z,-2.30
2019-01-19T15:00:27.680Z,-2.40
2019-01-19T15:03:24.777Z,-2.50
2019-01-19T15:06:50.594Z,-2.50
2019-01-19T15:09:42.525Z,-2.60
2019-01-19T15:12:51.625Z,-2.50
2019-01-19T15:15:47.655Z,-2.50
2019-01-19T15:18:54.025Z,-2.50
2019-01-19T15:22:09.847Z,-2.50
2019-01-19T15:25:18.434Z,-2.40
2019-01-19T15:28:13.195Z,-2.40
2019-01-19T15:30:56.710Z,-2.50
2019-01-19T15:34:02.433Z,-2.50
2019-01-19T15:37:02.494Z,-2.50
2019-01-19T15:39:41.167Z,-2.60
2019-01-19T15:43:03.863Z,-2.70
2019-01-19T15:46:05.483Z,-3.00
2019-01-19T15:49:25.046Z,-2.90
2019-01-19T15:52:27.142Z,-3.00
2019-01-19T15:55:51.746Z,-3.00
2019-01-19T15:58:57.546Z,-2.90
2019-01-19T16:02:06.690Z,-2.90
2019-01-19T16:05:14.903Z,-3.00
2019-01-19T16:08:21.477Z,-3.10
2019-01-19T16:11:36.478Z,-3.30
2019-01-19T16:14:56.022Z,-3.50
2019-01-19T16:17:48.929Z,-3.90
2019-01-19T16:21:00.339Z,-4.30
2019-01-19T16:24:00.636Z,-4.50
2019-01-19T16:27:06.225Z,-4.70
2019-01-19T16:30:10.289Z,-4.90
2019-01-19T16:33:12.156Z,-5.10
2019-01-19T16:36:05.059Z,-5.30
2019-01-19T16:39:30.784Z,-5.40
2019-01-19T16:42:26.326Z,-5.50
2019-01-19T16:45:25.114Z,-5.50
2019-01-19T16:48:20.859Z,-5.60
2019-01-19T16:51:33.208Z,-5.60
2019-01-19T16:54:46.575Z,-5.60
2019-01-19T16:57:34.820Z,-5.60
2019-01-19T17:00:35.236Z,-5.60
2019-01-19T17:03:44.585Z,-5.50
2019-01-19T17:06:49.737Z,-5.50
2019-01-19T17:10:04.017Z,-5.50
2019-01-19T17:12:50.159Z,-5.40
2019-01-19T17:15:50.799Z,-5.30
2019-01-19T17:18:47.180Z,-5.20
2019-01-19T17:22:04.016Z,-5.30
2019-01-19T17:25:17.420Z,-5.20
2019-01-19T17:28:27.599Z,-5.10
2019-01-19T17:31:23.378Z,-5.00
2019-01-19T17:34:58.598Z,-5.10
2019-01-19T17:37:48.713Z,-5.10
2019-01-19T17:40:54.779Z,-5.10
2019-01-19T17:44:11.638Z,-5.00
2019-01-19T17:47:00.892Z,-5.00
2019-01-19T17:49:56.225Z,-5.10
2019-01-19T17:52:49.645Z,-5.10
2019-01-19T17:56:03.408Z,-5.20
2019-01-19T17:59:24.934Z,-5.10
2019-01-19T18:02:31.484Z,-5.10
2019-01-19T18:05:13.454Z,-5.20
2019-01-19T18:08:31.028Z,-5.20
2019-01-19T18:11:32.886Z,-5.30
2019-01-19T18:14:57.212Z,-5.30
2019-01-19T18:18:07.705Z,-5.40
2019-01-19T18:21:16.729Z,-5.40
2019-01-19T18:24:35.359Z,-5.50
2019-01-19T18:27:36.771Z,-5.50
2019-01-19T18:30:40.213Z,-5.50
2019-01-19T18:33:31.264Z,-5.60
2019-01-19T18:36:35.789Z,-5.60
2019-01-19T18:39:36.499Z,-5.50
2019-01-19T18:42:36.876Z,-5.60
2019-01-19T18:45:40.576Z,-5.60
2019-01-19T18:48:36.215Z,-5.60
2019-01-19T18:51:24.780Z,-5.60
2019-01-19T18:54:31.192Z,-5.60
2019-01-19T18:57:25.684Z,-5.70
2019-01-19T19:00:43.479Z,-5.80
2019-01-19T19:03:41.599Z,-5.90
2019-01-19T19:06:43.105Z,-6.10
2019-01-19T19:10:02.040Z,-6.20
2019-01-19T19:12:56.905Z,-6.30
2019-01-19T19:16:16.996Z,-6.40
2019-01-19T19:19:29.521Z,-6.60
2019-01-19T19:22:26.581Z,-6.80
2019-01-19T19:25:30.042Z,-7.00
2019-01-19T19:28:45.969Z,-7.00
2019-01-19T19:31:42.506Z,-7.10
2019-01-19T19:34:48.120Z,-7.30
2019-01-19T19:37:58.826Z,-7.40
2019-01-19T19:41:03.079Z,-7.50
2019-01-19T19:43:53.726Z,-7.50
2019-01-19T19:46:55.303Z,-7.60
2019-01-19T19:50:21.243Z,-7.70
2019-01-19T19:52:50.802Z,-7.70
2019-01-19T19:55:18.839Z,-7.80
2019-01-19T19:57:48.426Z,-7.90
2019-01-19T20:00:18.661Z,-7.90
2019-01-19T20:02:48.168Z,-8.00
2019-01-19T20:05:18.033Z,-8.10
2019-01-19T20:07:47.698Z,-8.10
2019-01-19T20:10:17.534Z,-8.20
2019-01-19T20:12:47.394Z,-8.20
2019-01-19T20:15:17.326Z,-8.30
2019-01-19T20:17:46.800Z,-8.50
2019-01-19T20:20:16.800Z,-8.50
2019-01-19T20:22:46.660Z,-8.50
2019-01-19T20:25:16.308Z,-8.60
2019-01-19T20:27:46.385Z,-8.60
2019-01-19T20:30:17.017Z,-8.70
2019-01-19T20:32:46.658Z,-8.70
2019-01-19T20:35:16.348Z,-8.60
2019-01-19T20:37:45.819Z,-8.60
2019-01-19T20:40:15.512Z,-8.60
2019-01-19T20:42:45.110Z,-8.70
2019-01-19T20:45:15.378Z,-8.80
2019-01-19T20:47:45.131Z,-8.90
2019-01-19T20:50:14.989Z,-8.90
2019-01-19T20:52:44.642Z,-8.90
2019-01-19T20:55:15.049Z,-8.90
2019-01-19T20:57:47.027Z,-9.00
2019-01-19T21:00:17.967Z,-9.10
2019-01-19T21:02:47.556Z,-9.10
2019-01-19T21:05:17.784Z,-9.00
2019-01-19T21:07:47.391Z,-9.00
2019-01-19T21:10:18.124Z,-9.10
2019-01-19T21:12:47.651Z,-9.10
2019-01-19T21:15:17.609Z,-9.20
2019-01-19T21:17:47.278Z,-9.20
2019-01-19T21:20:17.228Z,-9.10
2019-01-19T21:22:46.696Z,-9.20
2019-01-19T21:25:16.410Z,-9.10
2019-01-19T21:27:45.903Z,-9.20
2019-01-19T21:30:16.386Z,-9.30
2019-01-19T21:32:46.292Z,-9.30
2019-01-19T21:35:16.304Z,-9.30
2019-01-19T21:37:45.760Z,-9.30
2019-01-19T21:40:16.123Z,-9.30
2019-01-19T21:42:45.695Z,-9.40
2019-01-19T21:45:17.998Z,-9.30
2019-01-19T21:47:47.806Z,-9.30
2019-01-19T21:50:17.507Z,-9.40
2019-01-19T21:52:47.041Z,-9.40
2019-01-19T21:55:16.759Z,-9.40
2019-01-19T21:57:46.331Z,-9.50
2019-01-19T22:00:17.460Z,-9.60
2019-01-19T22:02:47.129Z,-9.60
2019-01-19T22:07:42.477Z,-9.50
2019-01-19T22:10:14.715Z,-9.50
2019-01-19T22:12:44.268Z,-9.50
2019-01-19T22:15:15.919Z,-9.50
2019-01-19T22:17:45.494Z,-9.60
2019-01-19T22:20:16.148Z,-9.60
2019-01-19T22:22:45.774Z,-9.60
2019-01-19T22:25:15.134Z,-9.70
2019-01-19T22:27:47.556Z,-9.70
2019-01-19T22:30:19.562Z,-9.70
2019-01-19T22:32:51.027Z,-9.70
2019-01-19T22:35:21.788Z,-9.60
2019-01-19T22:37:51.208Z,-9.50
2019-01-19T22:40:21.015Z,-9.30
2019-01-19T22:42:50.612Z,-9.20
2019-01-19T22:45:20.187Z,-9.10
2019-01-19T22:47:49.739Z,-8.90
2019-01-19T22:50:19.303Z,-8.80
2019-01-19T22:52:48.732Z,-8.70
2019-01-19T22:55:18.340Z,-8.60
2019-01-19T22:57:47.923Z,-8.40
2019-01-19T23:00:56.199Z,-8.40
2019-01-19T23:03:25.982Z,-8.20
2019-01-19T23:05:55.648Z,-8.10
2019-01-19T23:08:25.151Z,-8.00
2019-01-19T23:11:01.062Z,-7.90
2019-01-19T23:13:26.086Z,-7.80
2019-01-19T23:15:55.702Z,-7.70
2019-01-19T23:18:25.214Z,-7.50
2019-01-19T23:20:54.811Z,-7.50
2019-01-19T23:23:24.192Z,-7.10
2019-01-19T23:25:53.894Z,-7.10
2019-01-19T23:28:23.343Z,-7.10
2019-01-19T23:30:53.051Z,-7.10
2019-01-19T23:33:22.464Z,-7.10
2019-01-19T23:35:52.022Z,-7.00
2019-01-19T23:38:21.426Z,-6.90
2019-01-19T23:40:50.954Z,-6.90
2019-01-19T23:43:20.549Z,-6.80
2019-01-19T23:45:50.129Z,-6.80
2019-01-19T23:48:19.667Z,-6.70
2019-01-19T23:50:49.378Z,-6.60
2019-01-19T23:53:18.745Z,-6.50
2019-01-19T23:55:48.262Z,-6.40
2019-01-19T23:58:17.869Z,-6.30
